Time;durP1;ratioP1;P1;durP2;ratioP2;P2;SDS_P1;SDS_P2;PMS_P1;PMS_P2;Temp;Humidity;BMP_temperature;BMP_pressure;BME280_temperature;BME280_humidity;BME280_pressure;Samples;Min_cycle;Max_cycle;Signal;HPM_P1;HPM_P2
2022/12/12 00:01:55;;;;;;;8.73;8.13;;;;;;;-0.64;77.92;100411.41;4178172;28;20790;-58
2022/12/12 00:03:58;;;;;;;9.55;8.80;;;;;;;-0.66;78.15;100410.69;4166371;28;20270;-59
2022/12/12 00:06:03;;;;;;;8.02;7.50;;;;;;;-0.66;77.94;100408.03;4166648;28;20314;-57
2022/12/12 00:08:06;;;;;;;8.73;8.10;;;;;;;-0.68;78.03;100408.16;4163511;28;20654;-58
2022/12/12 00:10:10;;;;;;;9.27;8.57;;;;;;;-0.67;78.03;100393.09;4159626;28;20327;-58
2022/12/12 00:12:12;;;;;;;9.00;8.30;;;;;;;-0.67;77.86;100395.75;4162683;28;20688;-57
2022/12/12 00:14:14;;;;;;;8.25;7.65;;;;;;;-0.70;77.68;100385.38;4168472;28;20275;-58
2022/12/12 00:16:17;;;;;;;9.43;8.73;;;;;;;-0.75;77.66;100396.31;4170942;28;20323;-58
2022/12/12 00:18:19;;;;;;;9.75;9.00;;;;;;;-0.80;77.91;100383.41;4162650;28;20284;-57
2022/12/12 00:20:23;;;;;;;8.77;8.18;;;;;;;-0.75;78.04;100394.50;4162780;28;20302;-58
2022/12/12 00:22:26;;;;;;;8.35;7.75;;;;;;;-0.74;78.25;100403.28;4163569;28;20308;-59
2022/12/12 00:24:28;;;;;;;8.80;8.20;;;;;;;-0.81;78.10;100394.94;4166165;28;20303;-59
2022/12/12 00:26:33;;;;;;;9.15;8.45;;;;;;;-0.80;78.16;100396.66;4164142;28;20315;-59
2022/12/12 00:28:35;;;;;;;8.30;7.70;;;;;;;-0.81;78.31;100404.72;4165481;28;20314;-59
2022/12/12 00:30:37;;;;;;;8.40;7.75;;;;;;;-0.83;78.30;100415.44;4176732;28;20711;-58
2022/12/12 00:32:40;;;;;;;8.05;7.45;;;;;;;-0.84;78.29;100413.75;4178436;28;20302;-55
2022/12/12 00:34:42;;;;;;;9.27;8.57;;;;;;;-0.83;78.53;100406.63;4176611;28;20342;-59
2022/12/12 00:36:45;;;;;;;8.63;8.02;;;;;;;-0.81;78.43;100408.22;4164985;28;20317;-59
2022/12/12 00:38:50;;;;;;;8.52;7.93;;;;;;;-0.79;78.46;100408.09;4178137;28;20309;-59
2022/12/12 00:40:55;;;;;;;8.32;7.72;;;;;;;-0.77;78.45;100400.88;4177638;28;20641;-58
2022/12/12 00:42:59;;;;;;;9.07;8.45;;;;;;;-0.75;78.23;100405.13;4164337;28;20736;-59
2022/12/12 00:45:01;;;;;;;9.82;9.02;;;;;;;-0.76;78.17;100395.44;4177063;28;20284;-58
2022/12/12 00:47:04;;;;;;;8.85;8.20;;;;;;;-0.75;78.06;100393.66;4178086;28;20214;-59
2022/12/12 00:49:06;;;;;;;10.98;10.02;;;;;;;-0.76;77.87;100389.31;4177631;28;20251;-58
2022/12/12 00:51:11;;;;;;;9.00;8.30;;;;;;;-0.74;78.08;100396.22;4165148;28;20316;-59
2022/12/12 00:53:15;;;;;;;8.88;8.18;;;;;;;-0.72;77.85;100390.78;4179664;28;20191;-58
2022/12/12 00:55:17;;;;;;;10.18;9.40;;;;;;;-0.73;77.83;100394.41;4164691;28;20713;-59
2022/12/12 00:57:22;;;;;;;8.32;7.72;;;;;;;-0.74;77.94;100398.00;4160639;28;20739;-59
2022/12/12 00:59:25;;;;;;;8.57;7.95;;;;;;;-0.74;78.07;100398.00;4163093;28;20311;-58
2022/12/12 01:01:29;;;;;;;8.60;8.00;;;;;;;-0.73;77.96;100405.84;4161821;28;20314;-57
2022/12/12 01:03:38;;;;;;;8.23;7.63;;;;;;;-0.73;78.06;100413.78;4174721;28;20287;-57
2022/12/12 01:05:41;;;;;;;9.55;8.82;;;;;;;-0.75;78.01;100418.38;4161822;28;20314;-57
2022/12/12 01:07:43;;;;;;;8.95;8.25;;;;;;;-0.77;78.11;100422.94;4163151;28;20277;-57
2022/12/12 01:09:45;;;;;;;8.70;8.10;;;;;;;-0.78;78.39;100423.06;4163110;28;20668;-57
2022/12/12 01:11:50;;;;;;;8.00;7.40;;;;;;;-0.80;78.53;100422.31;4162206;28;20303;-57
2022/12/12 01:13:54;;;;;;;8.32;7.72;;;;;;;-0.81;78.78;100425.94;4153228;28;20244;-58
2022/12/12 01:15:58;;;;;;;7.90;7.38;;;;;;;-0.82;78.94;100424.22;4178235;28;20313;-59
2022/12/12 01:18:00;;;;;;;8.30;7.70;;;;;;;-0.80;78.97;100427.59;4178697;28;20614;-56
2022/12/12 01:20:07;;;;;;;9.15;8.45;;;;;;;-0.79;79.10;100422.19;4176786;28;20339;-57
2022/12/12 01:22:12;;;;;;;8.80;8.13;;;;;;;-0.77;79.08;100430.03;4179038;28;20291;-59
2022/12/12 01:24:14;;;;;;;9.63;8.85;;;;;;;-0.76;78.98;100426.44;4170604;28;20626;-58
2022/12/12 01:26:18;;;;;;;8.57;7.97;;;;;;;-0.74;79.16;100427.16;4149145;28;20340;-57
2022/12/12 01:28:21;;;;;;;9.68;8.93;;;;;;;-0.75;79.20;100423.69;4162034;28;20307;-60
2022/12/12 01:30:23;;;;;;;9.65;8.88;;;;;;;-0.71;79.13;100431.41;4167602;28;20782;-59
2022/12/12 01:32:27;;;;;;;8.52;7.93;;;;;;;-0.73;79.16;100428.88;4179115;28;20285;-55
2022/12/12 01:34:29;;;;;;;9.15;8.45;;;;;;;-0.73;79.07;100432.34;4178345;28;20288;-54
2022/12/12 01:36:31;;;;;;;7.97;7.40;;;;;;;-0.75;79.15;100438.75;4176235;28;20251;-56
2022/12/12 01:38:34;;;;;;;8.52;7.93;;;;;;;-0.74;79.26;100440.44;4178856;28;20299;-57
2022/12/12 01:40:36;;;;;;;8.30;7.70;;;;;;;-0.76;79.40;100434.41;4178146;28;20342;-56
2022/12/12 01:42:39;;;;;;;7.68;7.18;;;;;;;-0.77;79.36;100436.22;4179707;28;20302;-57
2022/12/12 01:44:44;;;;;;;8.15;7.60;;;;;;;-0.77;79.43;100438.88;4163045;28;20290;-58
2022/12/12 01:46:46;;;;;;;7.70;7.20;;;;;;;-0.76;79.48;100437.88;4171502;28;20320;-58
2022/12/12 01:48:54;;;;;;;8.20;7.60;;;;;;;-0.75;79.63;100444.06;4169653;28;20782;-58
2022/12/12 01:50:57;;;;;;;8.75;8.15;;;;;;;-0.77;79.69;100441.50;4165866;28;20314;-59
2022/12/12 01:52:59;;;;;;;6.93;6.53;;;;;;;-0.75;79.63;100447.53;4177123;28;20270;-58
2022/12/12 01:55:04;;;;;;;10.52;9.73;;;;;;;-0.75;79.74;100439.59;4164389;28;20630;-57
2022/12/12 01:57:09;;;;;;;8.82;8.23;;;;;;;-0.72;79.73;100443.84;4176430;28;20290;-57
2022/12/12 01:59:13;;;;;;;10.10;9.30;;;;;;;-0.70;79.76;100444.56;4169494;28;20250;-56
2022/12/12 02:01:15;;;;;;;9.40;8.70;;;;;;;-0.69;79.67;100442.75;4161356;28;20322;-58
2022/12/12 02:03:18;;;;;;;8.70;8.07;;;;;;;-0.71;79.59;100434.91;4169034;28;20697;-58
2022/12/12 02:05:24;;;;;;;9.70;9.00;;;;;;;-0.70;79.63;100422.50;4171728;28;20318;-56
2022/12/12 02:07:27;;;;;;;8.88;8.23;;;;;;;-0.70;79.66;100419.84;4178057;28;20275;-58
2022/12/12 02:09:30;;;;;;;8.35;7.75;;;;;;;-0.70;79.52;100406.59;4171466;28;20622;-58
2022/12/12 02:11:33;;;;;;;8.93;8.32;;;;;;;-0.68;79.58;100408.16;4180532;28;20313;-57
2022/12/12 02:13:35;;;;;;;8.93;8.25;;;;;;;-0.65;79.53;100409.75;4180537;28;20287;-57
2022/12/12 02:15:42;;;;;;;8.80;8.18;;;;;;;-0.69;79.30;100403.81;4176835;28;20282;-58
2022/12/12 02:17:55;;;;;;;8.27;7.68;;;;;;;-0.68;79.40;100412.63;4164484;28;20278;-56
2022/12/12 02:20:31;;;;;;;8.75;8.15;;;;;;;-0.69;79.56;100416.22;4165547;28;20307;-57
2022/12/12 02:22:59;;;;;;;8.48;7.90;;;;;;;-0.72;79.79;100417.31;4152566;28;21465;-58
2022/12/12 02:25:21;;;;;;;11.10;10.25;;;;;;;-0.73;79.85;100431.53;4157364;28;20299;-57
2022/12/12 02:27:39;;;;;;;9.02;8.40;;;;;;;-0.75;80.11;100434.28;4153338;28;20314;-58
2022/12/12 02:30:04;;;;;;;7.95;7.45;;;;;;;-0.79;80.43;100430.16;4165365;28;20249;-56
2022/12/12 02:32:11;;;;;;;7.88;7.28;;;;;;;-0.77;80.45;100428.25;4163630;28;20732;-57
2022/12/12 02:34:16;;;;;;;9.85;9.10;;;;;;;-0.76;80.48;100432.59;4164543;28;20221;-58
2022/12/12 02:36:26;;;;;;;8.65;8.05;;;;;;;-0.74;80.63;100435.13;4150808;28;20659;-59
2022/12/12 02:38:31;;;;;;;7.63;7.13;;;;;;;-0.70;80.75;100435.75;4172195;28;20305;-59
2022/12/12 02:40:37;;;;;;;7.90;7.40;;;;;;;-0.71;80.62;100426.09;4180100;28;20315;-56
2022/12/12 02:42:43;;;;;;;9.05;8.35;;;;;;;-0.68;80.64;100424.06;4178471;28;20294;-58
2022/12/12 02:44:50;;;;;;;9.02;8.43;;;;;;;-0.66;80.74;100424.81;4164774;28;20282;-57
2022/12/12 02:46:58;;;;;;;8.43;7.82;;;;;;;-0.64;80.64;100424.69;4163704;28;20641;-59
2022/12/12 02:49:03;;;;;;;9.23;8.52;;;;;;;-0.63;80.71;100429.88;4164244;28;20250;-59
2022/12/12 02:51:07;;;;;;;8.50;7.90;;;;;;;-0.63;80.76;100427.22;4163717;28;20323;-59
2022/12/12 02:53:09;;;;;;;9.15;8.45;;;;;;;-0.65;80.91;100430.97;4164646;28;20732;-58
2022/12/12 02:55:12;;;;;;;11.05;10.18;;;;;;;-0.64;80.99;100443.25;4163423;28;20308;-57
2022/12/12 02:57:16;;;;;;;9.45;8.77;;;;;;;-0.64;80.88;100430.84;4166770;28;20283;-58
2022/12/12 02:59:24;;;;;;;9.18;8.52;;;;;;;-0.62;81.00;100444.84;4180764;28;20301;-58
2022/12/12 03:01:33;;;;;;;8.73;8.13;;;;;;;-0.63;81.01;100439.66;4179987;28;20936;-59
2022/12/12 03:08:43;;;;;;;9.27;8.57;;;;;;;-0.66;81.34;100438.09;4164003;28;20250;-58
2022/12/12 03:11:01;;;;;;;9.10;8.50;;;;;;;-0.64;81.54;100445.91;4155710;28;20641;-58
2022/12/12 03:13:18;;;;;;;9.02;8.40;;;;;;;-0.61;81.54;100437.72;4179156;28;20256;-58
2022/12/12 03:15:24;;;;;;;10.00;9.20;;;;;;;-0.60;81.61;100442.06;4164302;28;20230;-58
2022/12/12 03:17:30;;;;;;;8.65;8.05;;;;;;;-0.60;81.49;100447.38;4178120;28;20660;-58
2022/12/12 03:19:39;;;;;;;10.88;10.02;;;;;;;-0.59;81.69;100441.97;4177607;28;20246;-58
2022/12/12 03:21:47;;;;;;;7.53;7.00;;;;;;;-0.57;81.66;100447.16;4173952;28;20258;-58
2022/12/12 03:23:52;;;;;;;7.23;6.80;;;;;;;-0.57;81.80;100449.81;4158701;28;20749;-57
2022/12/12 03:25:58;;;;;;;9.13;8.47;;;;;;;-0.58;81.70;100446.31;4166599;28;20740;-59
2022/12/12 03:28:05;;;;;;;9.13;8.43;;;;;;;-0.53;81.73;100453.06;4176727;28;20645;-58
2022/12/12 03:30:10;;;;;;;9.73;9.00;;;;;;;-0.53;81.75;100451.28;4177301;28;20761;-55
2022/12/12 03:32:17;;;;;;;8.90;8.20;;;;;;;-0.53;81.89;100450.41;4177711;28;21223;-57
2022/12/12 03:34:22;;;;;;;9.17;8.43;;;;;;;-0.52;81.79;100455.63;4171702;28;20319;-59
2022/12/12 03:36:27;;;;;;;9.18;8.48;;;;;;;-0.50;82.06;100452.84;4173218;28;20750;-54
2022/12/12 03:38:34;;;;;;;7.93;7.33;;;;;;;-0.51;82.08;100452.00;4179145;28;20318;-54
2022/12/12 03:40:39;;;;;;;7.18;6.68;;;;;;;-0.49;82.11;100450.09;4161193;28;20767;-55
2022/12/12 03:42:44;;;;;;;7.85;7.25;;;;;;;-0.47;82.16;100450.84;4174565;28;20754;-56
2022/12/12 03:44:49;;;;;;;8.20;7.60;;;;;;;-0.44;82.04;100447.09;4157178;28;20280;-57
2022/12/12 03:46:53;;;;;;;6.70;6.30;;;;;;;-0.43;82.02;100435.53;4176972;28;20309;-57
2022/12/12 03:48:58;;;;;;;7.85;7.25;;;;;;;-0.43;82.17;100433.72;4177228;28;20308;-54
2022/12/12 03:51:04;;;;;;;8.05;7.45;;;;;;;-0.43;82.09;100443.50;4164760;28;20319;-57
2022/12/12 03:53:12;;;;;;;8.38;7.75;;;;;;;-0.45;82.20;100440.94;4177901;28;20201;-58
2022/12/12 03:55:21;;;;;;;10.67;9.77;;;;;;;-0.40;82.19;100448.56;4156522;28;20271;-56
2022/12/12 03:57:27;;;;;;;9.18;8.48;;;;;;;-0.39;82.22;100445.81;4173122;28;20715;-57
2022/12/12 03:59:33;;;;;;;6.73;6.23;;;;;;;-0.39;82.23;100444.97;4169183;28;20902;-56
2022/12/12 04:01:39;;;;;;;7.30;6.77;;;;;;;-0.39;82.40;100442.31;4173289;28;20748;-54
2022/12/12 04:03:48;;;;;;;7.43;6.83;;;;;;;-0.38;82.36;100444.00;4176791;28;20752;-58
2022/12/12 04:08:17;;;;;;;7.10;6.60;;;;;;;-0.39;82.53;100448.47;4166856;28;20728;-56
2022/12/12 04:12:59;;;;;;;5.07;4.73;;;;;;;-0.38;82.51;100444.84;4163750;28;20710;-55
2022/12/12 04:15:19;;;;;;;6.63;6.13;;;;;;;-0.38;82.71;100451.94;4162401;28;21063;-53
2022/12/12 04:17:25;;;;;;;6.07;5.60;;;;;;;-0.38;82.67;100450.16;4163665;28;21054;-57
2022/12/12 04:24:17;;;;;;;5.30;4.90;;;;;;;-0.38;82.97;100444.84;4176503;28;20830;-54
2022/12/12 04:26:38;;;;;;;7.30;6.70;;;;;;;-0.35;83.11;100449.06;4150554;28;20722;-55
2022/12/12 04:28:46;;;;;;;6.37;5.87;;;;;;;-0.34;83.04;100440.16;4179303;28;20744;-58
2022/12/12 04:30:48;;;;;;;5.60;5.20;;;;;;;-0.33;83.01;100441.88;4178225;28;20676;-56
2022/12/12 04:32:53;;;;;;;6.70;6.20;;;;;;;-0.31;82.98;100441.72;4178843;28;20641;-57
2022/12/12 04:34:58;;;;;;;7.33;6.80;;;;;;;-0.31;83.00;100441.72;4177398;28;21076;-57
2022/12/12 04:37:02;;;;;;;5.60;5.10;;;;;;;-0.31;82.89;100431.97;4177743;28;20736;-57
2022/12/12 04:39:06;;;;;;;5.43;4.93;;;;;;;-0.29;82.76;100438.00;4179164;28;20761;-57
2022/12/12 04:41:10;;;;;;;7.93;7.33;;;;;;;-0.28;82.87;100436.19;4174777;28;20689;-57
2022/12/12 04:43:17;;;;;;;7.43;6.83;;;;;;;-0.28;82.74;100434.41;4167815;28;20737;-58
2022/12/12 04:45:22;;;;;;;6.27;5.87;;;;;;;-0.27;82.77;100432.59;4177157;28;20724;-58
2022/12/12 04:47:25;;;;;;;7.40;6.80;;;;;;;-0.26;82.71;100427.16;4176643;28;20713;-59
2022/12/12 04:49:29;;;;;;;6.23;5.73;;;;;;;-0.24;82.67;100437.66;4152351;28;20661;-58
2022/12/12 04:51:33;;;;;;;5.83;5.33;;;;;;;-0.24;82.83;100441.16;4160885;28;21090;-58
2022/12/12 04:53:40;;;;;;;5.00;4.60;;;;;;;-0.23;82.75;100442.03;4173491;28;20713;-58
2022/12/12 04:55:44;;;;;;;5.63;5.20;;;;;;;-0.22;82.75;100441.03;4153599;28;21295;-57
2022/12/12 04:57:50;;;;;;;5.30;4.90;;;;;;;-0.20;82.60;100449.75;4177677;28;20712;-57
2022/12/12 04:59:53;;;;;;;6.30;5.83;;;;;;;-0.21;82.70;100442.75;4177376;28;20772;-58
2022/12/12 05:02:00;;;;;;;7.20;6.70;;;;;;;-0.21;82.68;100448.03;4160597;28;22005;-58
2022/12/12 05:04:06;;;;;;;7.77;7.27;;;;;;;-0.21;82.57;100446.22;4162785;28;20854;-58
2022/12/12 05:06:10;;;;;;;7.47;6.93;;;;;;;-0.21;82.64;100442.75;4157056;28;20734;-59
2022/12/12 05:08:17;;;;;;;7.97;7.37;;;;;;;-0.21;82.62;100443.56;4162641;28;20709;-59
2022/12/12 05:10:20;;;;;;;6.53;5.97;;;;;;;-0.19;82.62;100446.13;4161346;28;20738;-58
2022/12/12 05:12:22;;;;;;;5.33;4.93;;;;;;;-0.18;82.54;100442.50;4168501;28;20685;-58
2022/12/12 05:14:26;;;;;;;6.23;5.63;;;;;;;-0.17;82.40;100451.31;4178886;28;20737;-58
2022/12/12 05:16:33;;;;;;;6.00;5.37;;;;;;;-0.16;82.54;100453.00;4177789;28;20639;-56
2022/12/12 05:18:35;;;;;;;4.10;3.80;;;;;;;-0.16;82.24;100456.50;4156418;28;20725;-56
2022/12/12 05:20:37;;;;;;;5.37;4.97;;;;;;;-0.16;82.34;100451.19;4180510;28;20732;-55
2022/12/12 05:22:40;;;;;;;5.83;5.13;;;;;;;-0.14;82.22;100456.38;4181446;28;20709;-58
2022/12/12 05:24:42;;;;;;;5.87;5.30;;;;;;;-0.13;82.23;100458.94;4170915;28;20742;-57
2022/12/12 05:26:45;;;;;;;11.07;5.83;;;;;;;-0.12;82.22;100462.44;4166671;28;20754;-56
2022/12/12 05:28:47;;;;;;;15.47;7.10;;;;;;;-0.12;82.08;100465.94;4180756;28;20735;-57
2022/12/12 05:30:49;;;;;;;12.47;6.07;;;;;;;-0.10;82.11;100460.53;4180272;28;21230;-57
2022/12/12 05:32:53;;;;;;;12.47;7.17;;;;;;;-0.11;82.06;100454.38;4180008;28;21259;-57
2022/12/12 05:34:55;;;;;;;16.33;8.97;;;;;;;-0.10;82.01;100457.88;4179649;28;21082;-54
2022/12/12 05:36:57;;;;;;;6.00;4.20;;;;;;;-0.10;81.93;100458.69;4180092;28;20668;-56
2022/12/12 05:39:00;;;;;;;4.83;4.43;;;;;;;-0.10;81.87;100458.69;4180462;28;20752;-54
2022/12/12 05:41:02;;;;;;;6.87;5.20;;;;;;;-0.09;81.96;100457.75;4177793;28;20747;-57
2022/12/12 05:43:04;;;;;;;9.87;6.30;;;;;;;-0.08;81.79;100450.63;4164326;28;20739;-55
2022/12/12 05:45:08;;;;;;;11.80;9.00;;;;;;;-0.07;81.77;100447.00;4159395;28;20726;-55
2022/12/12 05:47:10;;;;;;;9.57;7.27;;;;;;;-0.07;81.77;100455.81;4164226;28;21274;-54
2022/12/12 05:49:14;;;;;;;5.67;5.07;;;;;;;-0.07;81.94;100447.84;4162592;28;20818;-56
2022/12/12 05:51:17;;;;;;;7.03;5.30;;;;;;;-0.07;81.90;100455.81;4158655;28;20721;-56
2022/12/12 05:53:20;;;;;;;9.07;6.20;;;;;;;-0.06;81.75;100456.69;4167023;28;20688;-56
2022/12/12 05:55:22;;;;;;;6.20;5.60;;;;;;;-0.04;81.57;100454.75;4166567;28;20732;-56
2022/12/12 05:57:24;;;;;;;8.50;6.40;;;;;;;-0.05;81.39;100451.25;4162005;28;21277;-54
2022/12/12 05:59:27;;;;;;;6.40;5.90;;;;;;;-0.05;81.47;100453.91;4165649;28;20741;-57
2022/12/12 06:01:29;;;;;;;6.97;6.30;;;;;;;-0.05;81.51;100456.56;4163963;28;20750;-59
2022/12/12 06:03:32;;;;;;;5.97;5.10;;;;;;;-0.04;81.20;100452.09;4165253;28;20689;-59
2022/12/12 06:05:35;;;;;;;5.73;5.23;;;;;;;-0.03;80.89;100459.94;4154091;28;21291;-58
2022/12/12 06:07:38;;;;;;;6.00;4.67;;;;;;;-0.02;80.94;100458.13;4164878;28;20714;-57
2022/12/12 06:09:41;;;;;;;15.40;8.73;;;;;;;-0.01;80.70;100459.81;4162083;28;20733;-59
2022/12/12 06:11:43;;;;;;;8.23;6.13;;;;;;;-0.01;80.58;100455.34;4144020;28;20740;-54
2022/12/12 06:13:46;;;;;;;24.80;10.00;;;;;;;-0.03;80.43;100454.63;4164129;28;20711;-55
2022/12/12 06:15:48;;;;;;;8.27;5.73;;;;;;;0.01;80.45;100457.06;4164063;28;20730;-57
2022/12/12 06:17:51;;;;;;;29.37;9.40;;;;;;;0.02;80.25;100464.91;4165319;28;21187;-56
2022/12/12 06:19:53;;;;;;;13.77;6.47;;;;;;;-0.02;80.19;100464.31;4165178;28;20762;-57
2022/12/12 06:21:57;;;;;;;55.87;15.37;;;;;;;0.02;80.22;100470.22;4164392;28;20737;-57
2022/12/12 06:23:59;;;;;;;51.87;14.57;;;;;;;0.03;80.18;100465.75;4165422;28;20739;-55
2022/12/12 06:26:01;;;;;;;16.00;6.53;;;;;;;0.02;80.19;100472.00;4155146;28;21050;-57
2022/12/12 06:28:04;;;;;;;36.10;11.33;;;;;;;0.02;80.35;100477.31;4164893;28;20717;-58
2022/12/12 06:30:08;;;;;;;31.40;10.40;;;;;;;0.03;80.14;100476.38;4163978;28;20730;-56
2022/12/12 06:32:10;;;;;;;32.80;10.70;;;;;;;0.03;80.07;100479.03;4164970;28;20711;-56
2022/12/12 06:34:12;;;;;;;120.50;29.73;;;;;;;0.03;79.76;100481.69;4164904;28;21121;-58
2022/12/12 06:36:22;;;;;;;112.30;28.33;;;;;;;0.04;79.74;100480.72;4160548;28;20735;-57
2022/12/12 06:38:26;;;;;;;73.47;18.97;;;;;;;0.04;79.66;100486.88;4155490;28;21172;-56
2022/12/12 06:40:28;;;;;;;90.90;23.07;;;;;;;0.04;79.53;100475.41;4164206;28;21220;-55
2022/12/12 06:42:31;;;;;;;82.20;21.40;;;;;;;0.05;79.37;100480.63;4164284;28;20733;-58
2022/12/12 06:44:33;;;;;;;67.77;18.13;;;;;;;0.06;79.37;100481.44;4160304;28;20751;-57
2022/12/12 06:46:35;;;;;;;67.03;17.90;;;;;;;0.07;79.45;100491.13;4160104;28;20749;-55
2022/12/12 06:48:38;;;;;;;61.80;16.07;;;;;;;0.06;79.21;100489.41;4160448;28;20739;-56
2022/12/12 06:50:40;;;;;;;66.33;17.67;;;;;;;0.07;79.61;100488.47;4168538;28;20736;-57
2022/12/12 06:52:42;;;;;;;105.00;26.83;;;;;;;0.05;79.57;100488.56;4169004;28;20722;-53
2022/12/12 06:54:46;;;;;;;126.93;31.00;;;;;;;0.06;79.51;100487.59;4170723;28;20700;-57
2022/12/12 06:56:49;;;;;;;84.43;21.43;;;;;;;0.04;79.25;100492.19;4161133;28;20741;-58
2022/12/12 06:58:52;;;;;;;83.53;21.00;;;;;;;0.05;79.55;100493.88;4167288;28;21234;-55
2022/12/12 07:00:54;;;;;;;112.43;27.47;;;;;;;0.06;79.37;100497.38;4163471;28;20754;-54
2022/12/12 07:02:57;;;;;;;78.57;20.50;;;;;;;0.07;79.31;100496.44;4163831;28;20713;-56
2022/12/12 07:04:59;;;;;;;94.30;25.40;;;;;;;0.05;79.35;100493.88;4160681;28;20742;-56
2022/12/12 07:07:01;;;;;;;72.73;19.30;;;;;;;0.06;79.20;100492.06;4164848;28;21263;-57
2022/12/12 07:09:04;;;;;;;86.90;22.17;;;;;;;0.05;79.25;100496.53;4163648;28;20756;-57
2022/12/12 07:11:11;;;;;;;93.23;23.13;;;;;;;0.04;79.49;100494.84;4162900;28;20749;-55
2022/12/12 07:13:13;;;;;;;91.73;23.50;;;;;;;0.05;79.36;100501.00;4163956;28;20709;-58
2022/12/12 07:15:15;;;;;;;102.47;26.20;;;;;;;0.05;79.48;100499.19;4162151;28;20712;-53
2022/12/12 07:17:18;;;;;;;109.50;27.23;;;;;;;0.05;79.63;100501.00;4156928;28;20719;-55
2022/12/12 07:19:21;;;;;;;131.07;32.50;;;;;;;0.05;79.65;100507.16;4164716;28;20745;-57
2022/12/12 07:21:23;;;;;;;107.80;27.47;;;;;;;0.05;79.79;100511.59;4167439;28;21066;-57
2022/12/12 07:23:26;;;;;;;106.43;26.63;;;;;;;0.01;79.81;100494.22;4163894;28;21305;-56
2022/12/12 07:25:28;;;;;;;116.20;29.07;;;;;;;0.05;79.91;100508.94;4158125;28;21247;-57
2022/12/12 07:27:32;;;;;;;99.13;25.07;;;;;;;0.04;79.99;100512.59;4156600;28;20675;-57
2022/12/12 07:29:34;;;;;;;106.43;26.37;;;;;;;0.03;79.96;100509.06;4171720;28;20735;-57
2022/12/12 07:31:36;;;;;;;108.73;27.30;;;;;;;0.03;79.80;100511.72;4163674;28;20733;-59
2022/12/12 07:33:39;;;;;;;119.07;29.40;;;;;;;0.03;79.92;100511.72;4166613;28;20718;-57
2022/12/12 07:35:42;;;;;;;127.30;31.40;;;;;;;0.03;80.04;100513.53;4170261;28;20741;-57
2022/12/12 07:37:46;;;;;;;133.53;32.90;;;;;;;0.03;79.86;100511.72;4167240;28;21043;-56
2022/12/12 07:39:48;;;;;;;137.37;34.00;;;;;;;0.04;79.94;100517.91;4161822;28;20646;-52
2022/12/12 07:41:50;;;;;;;135.23;33.23;;;;;;;0.04;79.82;100524.06;4162520;28;20737;-56
2022/12/12 07:43:59;;;;;;;137.23;34.43;;;;;;;0.03;79.60;100526.81;4163536;28;20689;-57
2022/12/12 07:46:01;;;;;;;134.03;34.27;;;;;;;0.03;79.88;100530.31;4160626;28;20779;-56
2022/12/12 07:48:04;;;;;;;132.47;33.77;;;;;;;0.04;79.87;100531.19;4166615;28;20715;-56
2022/12/12 07:50:07;;;;;;;135.20;34.17;;;;;;;-0.02;79.77;100520.06;4160224;28;21615;-60
2022/12/12 07:52:09;;;;;;;134.00;33.83;;;;;;;0.02;79.48;100523.31;4162991;28;20721;-57
2022/12/12 07:54:12;;;;;;;127.13;33.60;;;;;;;0.06;79.79;100534.56;4167890;28;20719;-56
2022/12/12 07:56:15;;;;;;;127.20;32.73;;;;;;;0.04;79.64;100532.03;4165239;28;20729;-53
2022/12/12 07:58:17;;;;;;;124.87;32.97;;;;;;;0.04;79.57;100536.50;4167252;28;20637;-57
2022/12/12 08:00:22;;;;;;;129.33;34.13;;;;;;;0.05;79.55;100538.16;4170644;28;20730;-56
2022/12/12 08:02:25;;;;;;;126.77;33.50;;;;;;;0.06;79.62;100545.19;4170348;28;20723;-56
2022/12/12 08:04:27;;;;;;;131.50;35.27;;;;;;;0.05;79.46;100541.69;4174832;28;20728;-55
2022/12/12 08:06:29;;;;;;;132.53;34.80;;;;;;;0.06;79.36;100546.03;4166399;28;20738;-57
2022/12/12 08:08:32;;;;;;;136.70;36.53;;;;;;;0.06;79.53;100550.50;4162452;28;20734;-58
2022/12/12 08:10:34;;;;;;;132.70;34.43;;;;;;;0.00;79.48;100535.88;4165387;28;21286;-57
2022/12/12 08:12:37;;;;;;;131.90;33.73;;;;;;;0.07;79.55;100554.84;4171258;28;21029;-57
2022/12/12 08:14:39;;;;;;;131.40;34.47;;;;;;;0.08;79.38;100560.06;4162494;28;20742;-57
2022/12/12 08:16:42;;;;;;;130.27;34.60;;;;;;;0.07;79.45;100554.84;4161682;28;20742;-56
2022/12/12 08:18:45;;;;;;;129.03;33.53;;;;;;;0.08;79.41;100561.84;4162845;28;20734;-53
2022/12/12 08:20:47;;;;;;;128.33;33.63;;;;;;;0.10;79.24;100557.28;4153190;28;20737;-56
2022/12/12 08:22:50;;;;;;;129.23;34.57;;;;;;;0.10;79.06;100565.25;4162250;28;20729;-59
2022/12/12 08:24:53;;;;;;;129.87;35.67;;;;;;;0.10;78.78;100562.59;4162113;28;20730;-57
2022/12/12 08:26:56;;;;;;;127.37;33.53;;;;;;;0.10;78.80;100565.25;4151713;28;21295;-54
2022/12/12 08:28:59;;;;;;;126.17;33.07;;;;;;;0.09;78.83;100564.38;4162876;28;20740;-59
2022/12/12 08:31:01;;;;;;;127.90;33.73;;;;;;;0.09;78.64;100560.88;4162179;28;21085;-55
2022/12/12 08:33:05;;;;;;;126.57;33.50;;;;;;;0.09;78.81;100561.72;4148718;28;20728;-55
2022/12/12 08:35:09;;;;;;;126.50;34.03;;;;;;;0.10;78.72;100559.94;4161990;28;20754;-56
2022/12/12 08:37:11;;;;;;;124.83;33.93;;;;;;;0.12;78.75;100563.31;4162741;28;20713;-56
2022/12/12 08:39:14;;;;;;;127.33;34.40;;;;;;;0.10;78.53;100557.28;4163289;28;20743;-56
2022/12/12 08:41:17;;;;;;;127.43;34.13;;;;;;;0.12;78.43;100573.94;4148167;28;20809;-57
2022/12/12 08:43:19;;;;;;;126.30;33.57;;;;;;;0.13;78.48;100568.50;4162215;28;20715;-55
2022/12/12 08:45:23;;;;;;;124.20;33.53;;;;;;;0.14;78.18;100574.66;4162284;28;20737;-56
2022/12/12 08:47:26;;;;;;;123.47;33.57;;;;;;;0.14;78.16;100572.00;4163444;28;20737;-55
2022/12/12 08:49:30;;;;;;;121.57;32.67;;;;;;;0.15;78.06;100568.41;4163646;28;20747;-56
2022/12/12 08:51:41;;;;;;;120.77;32.97;;;;;;;0.14;77.90;100583.50;4162924;28;21236;-56
2022/12/12 08:53:44;;;;;;;119.17;32.13;;;;;;;0.15;78.12;100579.03;4169503;28;20716;-54
2022/12/12 08:55:46;;;;;;;118.93;32.37;;;;;;;0.16;77.83;100586.03;4164019;28;20722;-57
2022/12/12 08:57:49;;;;;;;119.83;33.83;;;;;;;0.16;77.68;100583.38;4172331;28;20717;-57
2022/12/12 08:59:51;;;;;;;117.27;32.20;;;;;;;0.16;77.61;100596.66;4181509;28;21150;-56
2022/12/12 09:01:53;;;;;;;116.50;32.10;;;;;;;0.15;77.66;100595.78;4167536;28;20748;-57
2022/12/12 09:03:57;;;;;;;117.77;32.23;;;;;;;0.14;77.60;100587.94;4161654;28;20710;-56
2022/12/12 09:06:00;;;;;;;117.77;32.77;;;;;;;0.15;77.50;100597.63;4166705;28;21077;-56
2022/12/12 09:08:03;;;;;;;116.13;32.27;;;;;;;0.11;77.61;100590.81;4167253;28;21229;-57
2022/12/12 09:10:06;;;;;;;114.07;32.47;;;;;;;0.14;77.27;100596.78;4165882;28;20740;-55
2022/12/12 09:12:09;;;;;;;111.27;31.30;;;;;;;0.14;77.21;100596.78;4182050;28;20622;-53
2022/12/12 09:14:11;;;;;;;113.93;32.67;;;;;;;0.13;77.10;100600.38;4181541;28;21247;-55
2022/12/12 09:16:13;;;;;;;112.57;32.40;;;;;;;0.14;77.04;100599.44;4180975;28;20728;-55
2022/12/12 09:18:16;;;;;;;113.17;32.47;;;;;;;0.14;76.97;100606.53;4180471;28;20751;-53
2022/12/12 09:20:18;;;;;;;116.50;33.20;;;;;;;0.13;76.83;100603.03;4163637;28;21904;-58
2022/12/12 09:22:21;;;;;;;118.27;33.03;;;;;;;0.14;76.81;100609.19;4165296;28;20610;-59
2022/12/12 09:24:24;;;;;;;118.93;32.70;;;;;;;0.13;76.66;100604.84;4164832;28;20736;-56
2022/12/12 09:26:26;;;;;;;118.93;33.67;;;;;;;0.12;76.83;100611.97;4151642;28;20755;-55
2022/12/12 09:28:28;;;;;;;117.47;33.07;;;;;;;0.14;76.77;100606.53;4153929;28;20731;-54
2022/12/12 09:30:31;;;;;;;118.33;32.70;;;;;;;0.14;76.70;100611.84;4162762;28;21298;-54
2022/12/12 09:32:33;;;;;;;119.60;32.77;;;;;;;0.14;76.53;100611.84;4170664;28;20705;-55
2022/12/12 09:34:37;;;;;;;125.80;33.33;;;;;;;0.15;76.46;100608.25;4174461;28;20734;-56
2022/12/12 09:36:39;;;;;;;122.40;32.80;;;;;;;0.15;76.63;100609.06;4171920;28;20743;-55
2022/12/12 09:38:43;;;;;;;120.13;33.03;;;;;;;0.15;76.32;100609.06;4175706;28;20795;-57
2022/12/12 09:40:50;;;;;;;115.97;31.80;;;;;;;0.17;76.45;100614.28;4175209;28;20736;-53
2022/12/12 09:42:52;;;;;;;114.23;31.63;;;;;;;0.17;76.55;100614.28;4172773;28;21420;-52
2022/12/12 09:44:58;;;;;;;114.57;32.77;;;;;;;0.18;76.35;100618.63;4172779;28;20709;-55
2022/12/12 09:47:04;;;;;;;107.03;32.10;;;;;;;0.20;76.41;100616.72;4172274;28;20742;-56
2022/12/12 09:49:12;;;;;;;104.03;31.17;;;;;;;0.21;76.20;100613.09;4172734;28;21335;-57